메인 페이지
METAR-TAF:

METAR-TAF

공항 :

포르드프랑스, 마르티니크

위도: 14-36N, 경도: 061-00W, 고도: 5m

현재 날씨관측

예보는 31분 전, 23:00시(UTC)에 발표되었습니다.
동남동9kt
온도 27°C
습도 79%
기압 1015 hPa
시정 10km 이상
1500m 미만 상공 구름 및 적란운 없음

METAR: TFFF 012300Z AUTO 11009KT CAVOK 27/23 Q1015 NOSIG

시각: 19:31 (23:31 UTC)

예보

예보는 7 시간 31분 전, 16:00시(UTC)에 발표되었습니다.
예보 대상 시간: 01일 18시부터 02일 18시까지 (UTC)
12kt
시정 10km 이상
고도 3000ft 상공 구름 보통
일시적
02일 04시부터 02일 18시까지 (UTC)
시정: 2000m
고도 1200ft 상공 구름 조금, 적란운.
고도 1500ft 상공 구름 많음, 타워링 적운.
소나기

TAF: TFFF 011600Z 0118/0218 10012KT 9999 SCT030 TEMPO 0204/0218 2000 SHRA FEW012CB BKN015TCU

4,000개 이상의 공항 관측 자료 및 예보 (METAR 및 TAF 보고).

지도상에서 검색 가능한 기상관측소가 노란 점과 빨간 점으로 표시되어 있습니다.

기상관측소 명을 보려면 표시 위로 마우스를 이동하세요.

날씨 관측과 예보를 보려면 클릭하세요.

지도 변경 : 확대하려면 엑스 표시가 있는 녹색 버튼, 축소하려면 빼기 표시가 있는 녹색 버튼, 다음 페이지의 지도를 보려면 녹색 화살표를 클릭하세요.


METAR-TAF: